sensor_id;sensor_type;location;lat;lon;timestamp;temperature;humidity
20384;DHT22;46458;50.966;7.002;2024-02-23T00:00:26;7.90;1.00
20384;DHT22;46458;50.966;7.002;2024-02-23T00:02:55;8.00;1.00
20384;DHT22;46458;50.966;7.002;2024-02-23T00:05:29;7.90;1.00
20384;DHT22;46458;50.966;7.002;2024-02-23T00:07:58;7.90;1.00
20384;DHT22;46458;50.966;7.002;2024-02-23T00:10:30;7.80;1.00
20384;DHT22;46458;50.966;7.002;2024-02-23T00:12:59;7.90;1.00
20384;DHT22;46458;50.966;7.002;2024-02-23T00:15:28;7.80;1.00
20384;DHT22;46458;50.966;7.002;2024-02-23T00:17:56;7.80;1.00
20384;DHT22;46458;50.966;7.002;2024-02-23T00:20:25;7.90;1.00
20384;DHT22;46458;50.966;7.002;2024-02-23T00:22:57;7.90;1.00
20384;DHT22;46458;50.966;7.002;2024-02-23T00:25:28;7.90;1.00
20384;DHT22;46458;50.966;7.002;2024-02-23T00:27:57;7.60;99.90
20384;DHT22;46458;50.966;7.002;2024-02-23T00:30:32;7.60;99.90
20384;DHT22;46458;50.966;7.002;2024-02-23T00:33:01;7.50;99.90
20384;DHT22;46458;50.966;7.002;2024-02-23T00:35:30;7.40;99.90
20384;DHT22;46458;50.966;7.002;2024-02-23T00:38:05;7.30;99.90
20384;DHT22;46458;50.966;7.002;2024-02-23T00:40:34;7.50;99.90
20384;DHT22;46458;50.966;7.002;2024-02-23T00:43:02;7.30;99.90
20384;DHT22;46458;50.966;7.002;2024-02-23T00:45:32;7.00;99.90
20384;DHT22;46458;50.966;7.002;2024-02-23T00:48:00;6.90;99.90
20384;DHT22;46458;50.966;7.002;2024-02-23T00:50:29;7.10;99.90
20384;DHT22;46458;50.966;7.002;2024-02-23T00:52:58;7.40;99.90
20384;DHT22;46458;50.966;7.002;2024-02-23T00:55:30;7.00;99.90
20384;DHT22;46458;50.966;7.002;2024-02-23T00:57:59;7.00;99.90
20384;DHT22;46458;50.966;7.002;2024-02-23T01:00:29;7.10;1.00
20384;DHT22;46458;50.966;7.002;2024-02-23T01:02:59;7.00;1.00
20384;DHT22;46458;50.966;7.002;2024-02-23T01:05:27;6.80;1.00
20384;DHT22;46458;50.966;7.002;2024-02-23T01:07:56;6.90;1.00
20384;DHT22;46458;50.966;7.002;2024-02-23T01:10:25;6.70;1.00
20384;DHT22;46458;50.966;7.002;2024-02-23T01:12:59;6.60;1.00
20384;DHT22;46458;50.966;7.002;2024-02-23T01:15:28;6.60;1.00
20384;DHT22;46458;50.966;7.002;2024-02-23T01:18:01;6.80;99.90
20384;DHT22;46458;50.966;7.002;2024-02-23T01:20:33;6.50;99.90
20384;DHT22;46458;50.966;7.002;2024-02-23T01:23:02;6.60;99.90
20384;DHT22;46458;50.966;7.002;2024-02-23T01:25:31;6.60;99.90
20384;DHT22;46458;50.966;7.002;2024-02-23T01:28:09;6.90;99.90
20384;DHT22;46458;50.966;7.002;2024-02-23T01:30:38;6.30;51.80
20384;DHT22;46458;50.966;7.002;2024-02-23T01:33:07;6.80;99.90
20384;DHT22;46458;50.966;7.002;2024-02-23T01:35:36;6.70;99.90
20384;DHT22;46458;50.966;7.002;2024-02-23T01:38:05;6.60;99.90
20384;DHT22;46458;50.966;7.002;2024-02-23T01:40:37;6.70;99.90
20384;DHT22;46458;50.966;7.002;2024-02-23T01:43:10;6.30;99.90
20384;DHT22;46458;50.966;7.002;2024-02-23T01:45:39;6.60;99.90
20384;DHT22;46458;50.966;7.002;2024-02-23T01:48:08;6.60;99.90
20384;DHT22;46458;50.966;7.002;2024-02-23T01:50:37;6.60;99.90
20384;DHT22;46458;50.966;7.002;2024-02-23T01:53:06;6.70;99.90
20384;DHT22;46458;50.966;7.002;2024-02-23T01:55:36;6.60;99.90
20384;DHT22;46458;50.966;7.002;2024-02-23T01:58:11;6.00;99.90
20384;DHT22;46458;50.966;7.002;2024-02-23T02:00:42;6.60;99.90
20384;DHT22;46458;50.966;7.002;2024-02-23T02:03:11;6.50;99.90
20384;DHT22;46458;50.966;7.002;2024-02-23T02:05:40;6.70;99.90
20384;DHT22;46458;50.966;7.002;2024-02-23T02:08:10;6.40;99.90
20384;DHT22;46458;50.966;7.002;2024-02-23T02:10:39;6.50;99.90
20384;DHT22;46458;50.966;7.002;2024-02-23T02:13:11;6.40;99.90
20384;DHT22;46458;50.966;7.002;2024-02-23T02:15:40;6.50;99.90
20384;DHT22;46458;50.966;7.002;2024-02-23T02:18:09;6.40;99.90
20384;DHT22;46458;50.966;7.002;2024-02-23T02:20:40;6.40;99.90
20384;DHT22;46458;50.966;7.002;2024-02-23T02:23:19;6.50;99.90
20384;DHT22;46458;50.966;7.002;2024-02-23T02:25:52;6.60;99.90
20384;DHT22;46458;50.966;7.002;2024-02-23T02:28:25;6.30;99.90
20384;DHT22;46458;50.966;7.002;2024-02-23T02:30:57;6.20;99.90
20384;DHT22;46458;50.966;7.002;2024-02-23T02:33:25;6.30;99.90
20384;DHT22;46458;50.966;7.002;2024-02-23T02:35:54;6.40;99.90
20384;DHT22;46458;50.966;7.002;2024-02-23T02:38:26;6.40;99.90
20384;DHT22;46458;50.966;7.002;2024-02-23T02:40:55;8.10;1.00
20384;DHT22;46458;50.966;7.002;2024-02-23T02:43:28;6.30;99.90
20384;DHT22;46458;50.966;7.002;2024-02-23T02:46:01;6.40;99.90
20384;DHT22;46458;50.966;7.002;2024-02-23T02:48:29;6.20;99.90
20384;DHT22;46458;50.966;7.002;2024-02-23T02:50:58;6.40;99.90
20384;DHT22;46458;50.966;7.002;2024-02-23T02:53:29;6.20;99.90
20384;DHT22;46458;50.966;7.002;2024-02-23T02:55:58;6.30;99.90
20384;DHT22;46458;50.966;7.002;2024-02-23T02:58:29;6.20;99.90
20384;DHT22;46458;50.966;7.002;2024-02-23T03:00:58;6.20;99.90
20384;DHT22;46458;50.966;7.002;2024-02-23T03:03:27;6.20;99.90
20384;DHT22;46458;50.966;7.002;2024-02-23T03:05:56;6.50;99.90
20384;DHT22;46458;50.966;7.002;2024-02-23T03:08:24;6.30;99.90
20384;DHT22;46458;50.966;7.002;2024-02-23T03:10:53;6.30;99.90
20384;DHT22;46458;50.966;7.002;2024-02-23T03:13:25;6.00;53.20
20384;DHT22;46458;50.966;7.002;2024-02-23T03:15:59;5.70;1.00
20384;DHT22;46458;50.966;7.002;2024-02-23T03:18:28;6.10;92.40
20384;DHT22;46458;50.966;7.002;2024-02-23T03:20:59;6.30;83.50
20384;DHT22;46458;50.966;7.002;2024-02-23T03:23:28;5.70;1.00
20384;DHT22;46458;50.966;7.002;2024-02-23T03:25:57;6.30;55.80
20384;DHT22;46458;50.966;7.002;2024-02-23T03:28:26;6.40;39.60
20384;DHT22;46458;50.966;7.002;2024-02-23T03:30:58;6.10;39.20
20384;DHT22;46458;50.966;7.002;2024-02-23T03:33:27;6.20;39.10
20384;DHT22;46458;50.966;7.002;2024-02-23T03:35:57;6.30;34.70
20384;DHT22;46458;50.966;7.002;2024-02-23T03:38:26;6.10;38.70
20384;DHT22;46458;50.966;7.002;2024-02-23T03:40:55;6.00;45.10
20384;DHT22;46458;50.966;7.002;2024-02-23T03:43:25;5.90;73.70
20384;DHT22;46458;50.966;7.002;2024-02-23T03:46:00;5.70;94.30
20384;DHT22;46458;50.966;7.002;2024-02-23T03:48:29;5.90;99.90
20384;DHT22;46458;50.966;7.002;2024-02-23T03:51:01;5.80;99.90
20384;DHT22;46458;50.966;7.002;2024-02-23T03:53:31;5.70;99.90
20384;DHT22;46458;50.966;7.002;2024-02-23T03:56:00;5.80;99.90
20384;DHT22;46458;50.966;7.002;2024-02-23T03:58:29;5.80;99.90
20384;DHT22;46458;50.966;7.002;2024-02-23T04:01:00;5.70;99.90
20384;DHT22;46458;50.966;7.002;2024-02-23T04:03:29;5.80;99.90
20384;DHT22;46458;50.966;7.002;2024-02-23T04:05:58;5.80;99.90
20384;DHT22;46458;50.966;7.002;2024-02-23T04:08:27;6.00;99.90
20384;DHT22;46458;50.966;7.002;2024-02-23T04:10:57;5.90;99.90
20384;DHT22;46458;50.966;7.002;2024-02-23T04:13:26;6.00;99.90
20384;DHT22;46458;50.966;7.002;2024-02-23T04:15:55;6.50;81.60
20384;DHT22;46458;50.966;7.002;2024-02-23T04:18:27;6.50;58.80
20384;DHT22;46458;50.966;7.002;2024-02-23T04:20:55;6.20;66.00
20384;DHT22;46458;50.966;7.002;2024-02-23T04:23:24;6.20;64.70
20384;DHT22;46458;50.966;7.002;2024-02-23T04:25:53;6.30;50.10
20384;DHT22;46458;50.966;7.002;2024-02-23T04:28:22;6.30;33.30
20384;DHT22;46458;50.966;7.002;2024-02-23T04:30:52;6.30;22.20
20384;DHT22;46458;50.966;7.002;2024-02-23T04:33:21;6.30;24.30
20384;DHT22;46458;50.966;7.002;2024-02-23T04:35:52;6.30;22.70
20384;DHT22;46458;50.966;7.002;2024-02-23T04:38:22;6.30;29.80
20384;DHT22;46458;50.966;7.002;2024-02-23T04:40:51;6.40;45.90
20384;DHT22;46458;50.966;7.002;2024-02-23T04:43:20;6.50;21.10
20384;DHT22;46458;50.966;7.002;2024-02-23T04:45:50;6.50;15.60
20384;DHT22;46458;50.966;7.002;2024-02-23T04:48:21;6.40;19.60
20384;DHT22;46458;50.966;7.002;2024-02-23T04:50:53;6.00;1.00
20384;DHT22;46458;50.966;7.002;2024-02-23T04:53:24;6.20;1.00
20384;DHT22;46458;50.966;7.002;2024-02-23T04:55:55;6.40;24.50
20384;DHT22;46458;50.966;7.002;2024-02-23T04:58:28;6.40;1.00
20384;DHT22;46458;50.966;7.002;2024-02-23T05:01:00;6.50;21.20
20384;DHT22;46458;50.966;7.002;2024-02-23T05:03:29;6.60;9.00
20384;DHT22;46458;50.966;7.002;2024-02-23T05:06:00;6.30;1.00
20384;DHT22;46458;50.966;7.002;2024-02-23T05:08:30;6.50;12.30
20384;DHT22;46458;50.966;7.002;2024-02-23T05:10:59;6.50;9.70
20384;DHT22;46458;50.966;7.002;2024-02-23T05:13:32;6.40;1.00
20384;DHT22;46458;50.966;7.002;2024-02-23T05:16:00;6.40;1.00
20384;DHT22;46458;50.966;7.002;2024-02-23T05:18:29;6.40;4.00
20384;DHT22;46458;50.966;7.002;2024-02-23T05:21:01;6.50;1.40
20384;DHT22;46458;50.966;7.002;2024-02-23T05:23:29;6.40;29.90
20384;DHT22;46458;50.966;7.002;2024-02-23T05:25:58;6.30;45.50
20384;DHT22;46458;50.966;7.002;2024-02-23T05:28:27;6.30;38.90
20384;DHT22;46458;50.966;7.002;2024-02-23T05:30:56;6.10;41.60
20384;DHT22;46458;50.966;7.002;2024-02-23T05:33:25;6.20;63.40
20384;DHT22;46458;50.966;7.002;2024-02-23T05:35:54;6.00;90.00
20384;DHT22;46458;50.966;7.002;2024-02-23T05:38:25;6.10;90.30
20384;DHT22;46458;50.966;7.002;2024-02-23T05:40:56;5.90;99.90
20384;DHT22;46458;50.966;7.002;2024-02-23T05:43:25;5.90;99.90
20384;DHT22;46458;50.966;7.002;2024-02-23T05:45:54;5.80;99.90
20384;DHT22;46458;50.966;7.002;2024-02-23T05:48:24;5.80;99.90
20384;DHT22;46458;50.966;7.002;2024-02-23T05:50:53;5.90;99.90
20384;DHT22;46458;50.966;7.002;2024-02-23T05:53:22;5.80;99.90
20384;DHT22;46458;50.966;7.002;2024-02-23T05:55:53;5.90;99.90
20384;DHT22;46458;50.966;7.002;2024-02-23T05:58:22;5.80;99.90
20384;DHT22;46458;50.966;7.002;2024-02-23T06:00:50;5.80;99.90
20384;DHT22;46458;50.966;7.002;2024-02-23T06:03:19;5.80;99.90
20384;DHT22;46458;50.966;7.002;2024-02-23T06:05:50;5.80;99.90
20384;DHT22;46458;50.966;7.002;2024-02-23T06:08:20;5.80;99.90
20384;DHT22;46458;50.966;7.002;2024-02-23T06:10:48;5.60;99.90
20384;DHT22;46458;50.966;7.002;2024-02-23T06:13:20;5.50;99.90
20384;DHT22;46458;50.966;7.002;2024-02-23T06:15:49;5.70;99.90
20384;DHT22;46458;50.966;7.002;2024-02-23T06:18:19;5.70;99.90
20384;DHT22;46458;50.966;7.002;2024-02-23T06:20:48;5.80;99.90
20384;DHT22;46458;50.966;7.002;2024-02-23T06:23:17;6.00;99.90
20384;DHT22;46458;50.966;7.002;2024-02-23T06:25:48;5.90;99.90
20384;DHT22;46458;50.966;7.002;2024-02-23T06:28:22;5.90;99.90
20384;DHT22;46458;50.966;7.002;2024-02-23T06:30:58;5.90;99.90
20384;DHT22;46458;50.966;7.002;2024-02-23T06:33:27;5.80;99.90
20384;DHT22;46458;50.966;7.002;2024-02-23T06:35:56;5.70;99.90
20384;DHT22;46458;50.966;7.002;2024-02-23T06:38:25;5.60;99.90
20384;DHT22;46458;50.966;7.002;2024-02-23T06:40:54;5.70;99.90
20384;DHT22;46458;50.966;7.002;2024-02-23T06:43:29;5.60;99.90
20384;DHT22;46458;50.966;7.002;2024-02-23T06:45:58;5.70;99.90
20384;DHT22;46458;50.966;7.002;2024-02-23T06:48:27;5.70;99.90
20384;DHT22;46458;50.966;7.002;2024-02-23T06:50:56;5.70;99.90
20384;DHT22;46458;50.966;7.002;2024-02-23T06:53:25;5.70;99.90
20384;DHT22;46458;50.966;7.002;2024-02-23T06:55:53;5.90;99.90
20384;DHT22;46458;50.966;7.002;2024-02-23T06:58:22;5.90;99.90
20384;DHT22;46458;50.966;7.002;2024-02-23T07:00:56;5.70;99.90
20384;DHT22;46458;50.966;7.002;2024-02-23T07:03:26;5.60;99.90
20384;DHT22;46458;50.966;7.002;2024-02-23T07:05:55;5.50;99.90
20384;DHT22;46458;50.966;7.002;2024-02-23T07:08:25;5.60;99.90
20384;DHT22;46458;50.966;7.002;2024-02-23T07:10:53;5.70;99.90
20384;DHT22;46458;50.966;7.002;2024-02-23T07:13:22;5.60;99.90
20384;DHT22;46458;50.966;7.002;2024-02-23T07:15:56;5.70;99.90
20384;DHT22;46458;50.966;7.002;2024-02-23T07:18:27;5.70;99.90
20384;DHT22;46458;50.966;7.002;2024-02-23T07:21:00;5.60;99.90
20384;DHT22;46458;50.966;7.002;2024-02-23T07:23:29;6.20;99.90
20384;DHT22;46458;50.966;7.002;2024-02-23T07:26:00;6.00;99.90
20384;DHT22;46458;50.966;7.002;2024-02-23T07:28:28;6.30;99.90
20384;DHT22;46458;50.966;7.002;2024-02-23T07:31:07;6.30;91.30
20384;DHT22;46458;50.966;7.002;2024-02-23T07:33:37;6.40;99.90
20384;DHT22;46458;50.966;7.002;2024-02-23T07:36:07;6.60;95.70
20384;DHT22;46458;50.966;7.002;2024-02-23T07:38:36;6.50;84.30
20384;DHT22;46458;50.966;7.002;2024-02-23T07:41:05;6.50;99.90
20384;DHT22;46458;50.966;7.002;2024-02-23T07:43:44;6.40;90.40
20384;DHT22;46458;50.966;7.002;2024-02-23T07:46:15;8.60;1.00
20384;DHT22;46458;50.966;7.002;2024-02-23T07:48:45;6.40;99.90
20384;DHT22;46458;50.966;7.002;2024-02-23T07:51:14;6.20;99.90
20384;DHT22;46458;50.966;7.002;2024-02-23T07:53:43;6.20;99.90
20384;DHT22;46458;50.966;7.002;2024-02-23T07:56:11;6.30;99.90
20384;DHT22;46458;50.966;7.002;2024-02-23T07:58:40;6.70;73.20
20384;DHT22;46458;50.966;7.002;2024-02-23T08:01:09;6.30;34.60
20384;DHT22;46458;50.966;7.002;2024-02-23T08:03:41;6.30;83.20
20384;DHT22;46458;50.966;7.002;2024-02-23T08:06:11;6.50;54.10
20384;DHT22;46458;50.966;7.002;2024-02-23T08:08:40;6.60;20.10
20384;DHT22;46458;50.966;7.002;2024-02-23T08:11:12;6.70;35.20
20384;DHT22;46458;50.966;7.002;2024-02-23T08:13:42;6.60;2.00
20384;DHT22;46458;50.966;7.002;2024-02-23T08:16:11;6.60;1.00
20384;DHT22;46458;50.966;7.002;2024-02-23T08:18:45;6.70;1.00
20384;DHT22;46458;50.966;7.002;2024-02-23T08:21:14;9.00;1.00
20384;DHT22;46458;50.966;7.002;2024-02-23T08:23:44;7.00;1.00
20384;DHT22;46458;50.966;7.002;2024-02-23T08:26:13;7.00;1.00
20384;DHT22;46458;50.966;7.002;2024-02-23T08:28:42;6.90;1.00
20384;DHT22;46458;50.966;7.002;2024-02-23T08:31:13;7.00;1.00
20384;DHT22;46458;50.966;7.002;2024-02-23T08:33:46;7.20;1.00
20384;DHT22;46458;50.966;7.002;2024-02-23T08:36:15;7.40;1.00
20384;DHT22;46458;50.966;7.002;2024-02-23T08:38:44;7.40;1.00
20384;DHT22;46458;50.966;7.002;2024-02-23T08:41:13;7.40;1.00
20384;DHT22;46458;50.966;7.002;2024-02-23T08:43:41;7.40;1.00
20384;DHT22;46458;50.966;7.002;2024-02-23T08:46:13;7.30;1.00
20384;DHT22;46458;50.966;7.002;2024-02-23T08:48:47;8.30;1.00
20384;DHT22;46458;50.966;7.002;2024-02-23T08:51:15;7.70;1.00
20384;DHT22;46458;50.966;7.002;2024-02-23T08:53:45;8.10;1.00
20384;DHT22;46458;50.966;7.002;2024-02-23T08:56:14;8.30;1.00
20384;DHT22;46458;50.966;7.002;2024-02-23T08:58:43;8.60;1.00
20384;DHT22;46458;50.966;7.002;2024-02-23T09:01:12;8.80;1.00
20384;DHT22;46458;50.966;7.002;2024-02-23T09:03:41;9.00;1.00
20384;DHT22;46458;50.966;7.002;2024-02-23T09:06:21;8.90;1.00
20384;DHT22;46458;50.966;7.002;2024-02-23T09:08:50;8.20;1.00
20384;DHT22;46458;50.966;7.002;2024-02-23T09:11:22;8.80;1.00
20384;DHT22;46458;50.966;7.002;2024-02-23T09:13:51;8.80;1.00
20384;DHT22;46458;50.966;7.002;2024-02-23T09:16:22;8.90;1.00
20384;DHT22;46458;50.966;7.002;2024-02-23T09:18:51;8.90;1.00
20384;DHT22;46458;50.966;7.002;2024-02-23T09:21:23;8.90;1.00
20384;DHT22;46458;50.966;7.002;2024-02-23T09:23:51;9.40;1.00
20384;DHT22;46458;50.966;7.002;2024-02-23T09:26:23;9.30;1.00
20384;DHT22;46458;50.966;7.002;2024-02-23T09:28:52;9.30;1.00
20384;DHT22;46458;50.966;7.002;2024-02-23T09:31:21;9.20;1.00
20384;DHT22;46458;50.966;7.002;2024-02-23T09:33:50;9.30;1.00
20384;DHT22;46458;50.966;7.002;2024-02-23T09:36:18;9.30;1.00
20384;DHT22;46458;50.966;7.002;2024-02-23T09:38:52;9.40;1.00
20384;DHT22;46458;50.966;7.002;2024-02-23T09:41:22;9.60;1.00
20384;DHT22;46458;50.966;7.002;2024-02-23T09:43:52;10.00;1.00
20384;DHT22;46458;50.966;7.002;2024-02-23T09:46:24;10.10;1.00
20384;DHT22;46458;50.966;7.002;2024-02-23T09:48:55;10.90;1.00
20384;DHT22;46458;50.966;7.002;2024-02-23T09:51:25;11.60;1.00
20384;DHT22;46458;50.966;7.002;2024-02-23T09:53:57;12.30;1.00
20384;DHT22;46458;50.966;7.002;2024-02-23T09:56:28;12.60;1.00
20384;DHT22;46458;50.966;7.002;2024-02-23T09:59:00;12.40;1.00
20384;DHT22;46458;50.966;7.002;2024-02-23T10:01:31;11.80;1.00
20384;DHT22;46458;50.966;7.002;2024-02-23T10:04:02;11.70;1.00
20384;DHT22;46458;50.966;7.002;2024-02-23T10:06:32;11.90;1.00
20384;DHT22;46458;50.966;7.002;2024-02-23T10:09:04;12.00;1.00
20384;DHT22;46458;50.966;7.002;2024-02-23T10:11:33;11.90;1.00
20384;DHT22;46458;50.966;7.002;2024-02-23T10:14:02;11.90;1.00
20384;DHT22;46458;50.966;7.002;2024-02-23T10:16:30;11.90;1.00
20384;DHT22;46458;50.966;7.002;2024-02-23T10:18:59;11.40;1.00
20384;DHT22;46458;50.966;7.002;2024-02-23T10:21:33;11.70;1.00
20384;DHT22;46458;50.966;7.002;2024-02-23T10:24:05;11.30;1.00
20384;DHT22;46458;50.966;7.002;2024-02-23T10:26:34;11.30;1.00
20384;DHT22;46458;50.966;7.002;2024-02-23T10:29:03;11.60;1.00
20384;DHT22;46458;50.966;7.002;2024-02-23T10:31:37;11.50;1.00
20384;DHT22;46458;50.966;7.002;2024-02-23T10:34:09;11.30;1.00
20384;DHT22;46458;50.966;7.002;2024-02-23T10:36:44;11.20;1.00
20384;DHT22;46458;50.966;7.002;2024-02-23T10:39:18;11.20;1.00
20384;DHT22;46458;50.966;7.002;2024-02-23T10:41:56;11.20;1.00
20384;DHT22;46458;50.966;7.002;2024-02-23T10:44:26;11.60;1.00
20384;DHT22;46458;50.966;7.002;2024-02-23T10:46:58;11.70;1.00
20384;DHT22;46458;50.966;7.002;2024-02-23T10:49:28;11.50;1.00
20384;DHT22;46458;50.966;7.002;2024-02-23T10:51:58;11.70;1.00
20384;DHT22;46458;50.966;7.002;2024-02-23T10:54:31;11.90;1.00
20384;DHT22;46458;50.966;7.002;2024-02-23T10:57:02;11.70;1.00
20384;DHT22;46458;50.966;7.002;2024-02-23T10:59:31;11.00;1.00
20384;DHT22;46458;50.966;7.002;2024-02-23T11:02:00;11.20;1.00
20384;DHT22;46458;50.966;7.002;2024-02-23T11:04:33;11.40;1.00
20384;DHT22;46458;50.966;7.002;2024-02-23T11:07:03;10.90;1.00
20384;DHT22;46458;50.966;7.002;2024-02-23T11:09:38;11.00;1.00
20384;DHT22;46458;50.966;7.002;2024-02-23T11:12:08;12.20;1.00
20384;DHT22;46458;50.966;7.002;2024-02-23T11:14:38;10.60;1.00
20384;DHT22;46458;50.966;7.002;2024-02-23T11:17:21;11.00;1.00
20384;DHT22;46458;50.966;7.002;2024-02-23T11:19:50;10.60;1.00
20384;DHT22;46458;50.966;7.002;2024-02-23T11:22:25;10.50;1.00
20384;DHT22;46458;50.966;7.002;2024-02-23T11:25:03;10.40;1.00
20384;DHT22;46458;50.966;7.002;2024-02-23T11:27:34;10.20;1.00
20384;DHT22;46458;50.966;7.002;2024-02-23T11:30:05;10.40;1.00
20384;DHT22;46458;50.966;7.002;2024-02-23T11:32:37;10.10;1.00
20384;DHT22;46458;50.966;7.002;2024-02-23T11:35:10;10.60;1.00
20384;DHT22;46458;50.966;7.002;2024-02-23T11:37:47;11.00;1.00
20384;DHT22;46458;50.966;7.002;2024-02-23T11:40:20;11.70;1.00
20384;DHT22;46458;50.966;7.002;2024-02-23T11:42:51;11.50;1.00
20384;DHT22;46458;50.966;7.002;2024-02-23T11:45:20;11.10;1.00
20384;DHT22;46458;50.966;7.002;2024-02-23T11:47:48;11.30;1.00
20384;DHT22;46458;50.966;7.002;2024-02-23T11:50:17;11.00;1.00
20384;DHT22;46458;50.966;7.002;2024-02-23T11:52:47;10.70;1.00
20384;DHT22;46458;50.966;7.002;2024-02-23T11:55:26;10.50;1.00
20384;DHT22;46458;50.966;7.002;2024-02-23T11:57:55;10.70;1.00
20384;DHT22;46458;50.966;7.002;2024-02-23T12:00:24;10.60;1.00
20384;DHT22;46458;50.966;7.002;2024-02-23T12:02:53;10.50;1.00
20384;DHT22;46458;50.966;7.002;2024-02-23T12:05:22;10.60;1.00
20384;DHT22;46458;50.966;7.002;2024-02-23T12:07:51;10.50;1.00
20384;DHT22;46458;50.966;7.002;2024-02-23T12:10:25;10.60;1.00
20384;DHT22;46458;50.966;7.002;2024-02-23T12:12:54;12.60;1.00
20384;DHT22;46458;50.966;7.002;2024-02-23T12:15:25;10.60;1.00
20384;DHT22;46458;50.966;7.002;2024-02-23T12:17:54;10.50;1.00
20384;DHT22;46458;50.966;7.002;2024-02-23T12:20:26;10.20;1.00
20384;DHT22;46458;50.966;7.002;2024-02-23T12:22:55;10.40;1.00
20384;DHT22;46458;50.966;7.002;2024-02-23T12:25:27;10.50;1.00
20384;DHT22;46458;50.966;7.002;2024-02-23T12:27:59;10.30;1.00
20384;DHT22;46458;50.966;7.002;2024-02-23T12:30:30;10.90;1.00
20384;DHT22;46458;50.966;7.002;2024-02-23T12:33:04;10.20;1.00
20384;DHT22;46458;50.966;7.002;2024-02-23T12:35:37;10.30;1.00
20384;DHT22;46458;50.966;7.002;2024-02-23T12:38:06;10.40;1.00
20384;DHT22;46458;50.966;7.002;2024-02-23T12:40:38;10.30;1.00
20384;DHT22;46458;50.966;7.002;2024-02-23T12:43:07;10.60;1.00
20384;DHT22;46458;50.966;7.002;2024-02-23T12:45:35;10.30;1.00
20384;DHT22;46458;50.966;7.002;2024-02-23T12:48:05;10.40;1.00
20384;DHT22;46458;50.966;7.002;2024-02-23T12:50:34;10.40;1.00
20384;DHT22;46458;50.966;7.002;2024-02-23T12:53:04;10.80;1.00
20384;DHT22;46458;50.966;7.002;2024-02-23T12:55:33;11.00;1.00
20384;DHT22;46458;50.966;7.002;2024-02-23T12:58:06;11.40;1.00
20384;DHT22;46458;50.966;7.002;2024-02-23T13:00:38;11.30;1.00
20384;DHT22;46458;50.966;7.002;2024-02-23T13:03:07;10.80;1.00
20384;DHT22;46458;50.966;7.002;2024-02-23T13:05:38;11.50;1.00
20384;DHT22;46458;50.966;7.002;2024-02-23T13:08:08;11.20;1.00
20384;DHT22;46458;50.966;7.002;2024-02-23T13:10:37;11.50;1.00
20384;DHT22;46458;50.966;7.002;2024-02-23T13:13:11;11.70;1.00
20384;DHT22;46458;50.966;7.002;2024-02-23T13:15:41;11.40;1.00
20384;DHT22;46458;50.966;7.002;2024-02-23T13:18:10;11.20;1.00
20384;DHT22;46458;50.966;7.002;2024-02-23T13:20:39;11.50;1.00
20384;DHT22;46458;50.966;7.002;2024-02-23T13:23:09;11.80;1.00
20384;DHT22;46458;50.966;7.002;2024-02-23T13:25:39;11.40;1.00
20384;DHT22;46458;50.966;7.002;2024-02-23T13:28:14;11.50;1.00
20384;DHT22;46458;50.966;7.002;2024-02-23T13:30:43;11.70;1.00
20384;DHT22;46458;50.966;7.002;2024-02-23T13:33:12;11.70;1.00
20384;DHT22;46458;50.966;7.002;2024-02-23T13:35:42;12.30;1.00
20384;DHT22;46458;50.966;7.002;2024-02-23T13:38:11;13.70;1.00
20384;DHT22;46458;50.966;7.002;2024-02-23T13:40:39;15.00;1.00
20384;DHT22;46458;50.966;7.002;2024-02-23T13:43:11;15.00;1.00
20384;DHT22;46458;50.966;7.002;2024-02-23T13:45:48;14.70;1.00
20384;DHT22;46458;50.966;7.002;2024-02-23T13:48:18;13.60;1.00
20384;DHT22;46458;50.966;7.002;2024-02-23T13:50:49;13.20;1.00
20384;DHT22;46458;50.966;7.002;2024-02-23T13:53:21;13.10;1.00
20384;DHT22;46458;50.966;7.002;2024-02-23T13:55:58;12.50;1.00
20384;DHT22;46458;50.966;7.002;2024-02-23T13:58:30;12.00;1.00
20384;DHT22;46458;50.966;7.002;2024-02-23T14:00:59;12.50;1.00
20384;DHT22;46458;50.966;7.002;2024-02-23T14:03:28;13.70;1.00
20384;DHT22;46458;50.966;7.002;2024-02-23T14:05:57;13.90;1.00
20384;DHT22;46458;50.966;7.002;2024-02-23T14:08:27;13.60;1.00
20384;DHT22;46458;50.966;7.002;2024-02-23T14:10:57;13.80;1.00
20384;DHT22;46458;50.966;7.002;2024-02-23T14:13:26;13.70;1.00
20384;DHT22;46458;50.966;7.002;2024-02-23T14:16:01;13.70;1.00
20384;DHT22;46458;50.966;7.002;2024-02-23T14:18:32;13.50;99.90
20384;DHT22;46458;50.966;7.002;2024-02-23T14:21:06;13.60;1.00
20384;DHT22;46458;50.966;7.002;2024-02-23T14:23:39;13.90;1.00
20384;DHT22;46458;50.966;7.002;2024-02-23T14:26:09;13.40;1.00
20384;DHT22;46458;50.966;7.002;2024-02-23T14:28:38;13.20;1.00
20384;DHT22;46458;50.966;7.002;2024-02-23T14:31:10;12.80;1.00
20384;DHT22;46458;50.966;7.002;2024-02-23T14:33:39;12.50;1.00
20384;DHT22;46458;50.966;7.002;2024-02-23T14:36:08;12.50;1.00
20384;DHT22;46458;50.966;7.002;2024-02-23T14:38:36;12.20;1.00
20384;DHT22;46458;50.966;7.002;2024-02-23T14:41:05;12.00;1.00
20384;DHT22;46458;50.966;7.002;2024-02-23T14:43:35;11.60;1.00
20384;DHT22;46458;50.966;7.002;2024-02-23T14:46:05;11.30;1.00
20384;DHT22;46458;50.966;7.002;2024-02-23T14:48:39;11.10;1.00
20384;DHT22;46458;50.966;7.002;2024-02-23T14:51:08;11.00;1.00
20384;DHT22;46458;50.966;7.002;2024-02-23T14:53:37;11.10;1.00
20384;DHT22;46458;50.966;7.002;2024-02-23T14:56:07;11.20;1.00
20384;DHT22;46458;50.966;7.002;2024-02-23T14:58:35;11.10;1.00
20384;DHT22;46458;50.966;7.002;2024-02-23T15:01:05;10.90;1.00
20384;DHT22;46458;50.966;7.002;2024-02-23T15:03:37;11.00;1.00
20384;DHT22;46458;50.966;7.002;2024-02-23T15:06:06;10.90;1.00
20384;DHT22;46458;50.966;7.002;2024-02-23T15:08:36;10.70;1.00
20384;DHT22;46458;50.966;7.002;2024-02-23T15:11:07;10.70;1.00
20384;DHT22;46458;50.966;7.002;2024-02-23T15:13:36;10.70;1.00
20384;DHT22;46458;50.966;7.002;2024-02-23T15:16:08;10.70;1.00
20384;DHT22;46458;50.966;7.002;2024-02-23T15:18:39;10.70;1.00
20384;DHT22;46458;50.966;7.002;2024-02-23T15:21:08;10.70;1.00
20384;DHT22;46458;50.966;7.002;2024-02-23T15:23:37;10.70;1.00
20384;DHT22;46458;50.966;7.002;2024-02-23T15:26:09;10.70;1.00
20384;DHT22;46458;50.966;7.002;2024-02-23T15:28:38;10.90;1.00
20384;DHT22;46458;50.966;7.002;2024-02-23T15:31:07;10.80;1.00
20384;DHT22;46458;50.966;7.002;2024-02-23T15:33:39;10.60;1.00
20384;DHT22;46458;50.966;7.002;2024-02-23T15:36:08;10.50;1.00
20384;DHT22;46458;50.966;7.002;2024-02-23T15:38:37;10.40;1.00
20384;DHT22;46458;50.966;7.002;2024-02-23T15:41:06;10.40;1.00
20384;DHT22;46458;50.966;7.002;2024-02-23T15:43:37;10.50;1.00
20384;DHT22;46458;50.966;7.002;2024-02-23T15:46:06;10.40;1.00
20384;DHT22;46458;50.966;7.002;2024-02-23T15:48:35;10.30;1.00
20384;DHT22;46458;50.966;7.002;2024-02-23T15:51:06;10.50;1.00
20384;DHT22;46458;50.966;7.002;2024-02-23T15:53:35;10.50;1.00
20384;DHT22;46458;50.966;7.002;2024-02-23T15:56:04;10.50;1.00
20384;DHT22;46458;50.966;7.002;2024-02-23T15:58:33;10.50;1.00
20384;DHT22;46458;50.966;7.002;2024-02-23T16:01:02;10.60;1.00
20384;DHT22;46458;50.966;7.002;2024-02-23T16:03:31;10.60;1.00
20384;DHT22;46458;50.966;7.002;2024-02-23T16:06:00;10.60;1.00
20384;DHT22;46458;50.966;7.002;2024-02-23T16:08:42;10.30;1.00